sensor_id;sensor_type;location;lat;lon;timestamp;temperature;humidity
48376;DHT22;34178;50.904;11.560;2023-02-21T00:00:46;10.20;99.90
48376;DHT22;34178;50.904;11.560;2023-02-21T00:06:09;10.20;99.90
48376;DHT22;34178;50.904;11.560;2023-02-21T00:08:53;10.20;99.90
48376;DHT22;34178;50.904;11.560;2023-02-21T00:11:41;10.20;99.90
48376;DHT22;34178;50.904;11.560;2023-02-21T00:14:25;10.20;99.90
48376;DHT22;34178;50.904;11.560;2023-02-21T00:17:10;10.20;99.90
48376;DHT22;34178;50.904;11.560;2023-02-21T00:19:54;10.30;99.90
48376;DHT22;34178;50.904;11.560;2023-02-21T00:32:59;10.20;99.90
48376;DHT22;34178;50.904;11.560;2023-02-21T00:35:43;10.30;99.90
48376;DHT22;34178;50.904;11.560;2023-02-21T00:38:27;10.20;99.90
48376;DHT22;34178;50.904;11.560;2023-02-21T00:41:11;10.30;99.90
48376;DHT22;34178;50.904;11.560;2023-02-21T01:01:59;10.30;99.90
48376;DHT22;34178;50.904;11.560;2023-02-21T01:04:43;10.30;99.90
48376;DHT22;34178;50.904;11.560;2023-02-21T01:07:27;10.20;99.90
48376;DHT22;34178;50.904;11.560;2023-02-21T01:10:11;10.20;99.90
48376;DHT22;34178;50.904;11.560;2023-02-21T01:44:03;10.30;99.90
48376;DHT22;34178;50.904;11.560;2023-02-21T01:46:47;10.30;99.90
48376;DHT22;34178;50.904;11.560;2023-02-21T01:49:33;10.30;99.90
48376;DHT22;34178;50.904;11.560;2023-02-21T01:52:18;10.30;99.90
48376;DHT22;34178;50.904;11.560;2023-02-21T01:55:03;10.20;99.90
48376;DHT22;34178;50.904;11.560;2023-02-21T01:57:49;10.10;99.90
48376;DHT22;34178;50.904;11.560;2023-02-21T02:00:34;10.10;99.90
48376;DHT22;34178;50.904;11.560;2023-02-21T02:31:56;10.10;99.90
48376;DHT22;34178;50.904;11.560;2023-02-21T02:37:29;10.20;99.90
48376;DHT22;34178;50.904;11.560;2023-02-21T03:11:16;10.30;99.90
48376;DHT22;34178;50.904;11.560;2023-02-21T03:24:05;10.30;99.90
48376;DHT22;34178;50.904;11.560;2023-02-21T03:26:35;10.30;99.90
48376;DHT22;34178;50.904;11.560;2023-02-21T03:29:02;10.30;99.90
48376;DHT22;34178;50.904;11.560;2023-02-21T03:36:40;10.30;99.90
48376;DHT22;34178;50.904;11.560;2023-02-21T03:39:06;10.30;99.90
48376;DHT22;34178;50.904;11.560;2023-02-21T03:41:32;10.30;99.90
48376;DHT22;34178;50.904;11.560;2023-02-21T03:43:57;10.30;99.90
48376;DHT22;34178;50.904;11.560;2023-02-21T03:46:23;10.30;99.90
48376;DHT22;34178;50.904;11.560;2023-02-21T03:48:49;10.30;99.90
48376;DHT22;34178;50.904;11.560;2023-02-21T03:51:14;10.30;99.90
48376;DHT22;34178;50.904;11.560;2023-02-21T04:19:34;10.50;99.90
48376;DHT22;34178;50.904;11.560;2023-02-21T04:21:59;10.50;99.90
48376;DHT22;34178;50.904;11.560;2023-02-21T04:24:25;10.60;99.90
48376;DHT22;34178;50.904;11.560;2023-02-21T04:26:51;10.50;99.90
48376;DHT22;34178;50.904;11.560;2023-02-21T04:29:17;10.60;99.90
48376;DHT22;34178;50.904;11.560;2023-02-21T04:34:23;10.60;99.90
48376;DHT22;34178;50.904;11.560;2023-02-21T04:36:49;10.60;99.90
48376;DHT22;34178;50.904;11.560;2023-02-21T04:39:15;10.70;99.90
48376;DHT22;34178;50.904;11.560;2023-02-21T04:54:37;10.60;99.90
48376;DHT22;34178;50.904;11.560;2023-02-21T04:57:03;10.60;99.90
48376;DHT22;34178;50.904;11.560;2023-02-21T04:59:28;10.60;99.90
48376;DHT22;34178;50.904;11.560;2023-02-21T05:01:54;10.60;99.90
48376;DHT22;34178;50.904;11.560;2023-02-21T05:04:20;10.60;99.90
48376;DHT22;34178;50.904;11.560;2023-02-21T05:06:45;10.60;99.90
48376;DHT22;34178;50.904;11.560;2023-02-21T05:09:11;10.50;99.90
48376;DHT22;34178;50.904;11.560;2023-02-21T05:11:37;10.60;99.90
48376;DHT22;34178;50.904;11.560;2023-02-21T05:14:03;10.60;99.90
48376;DHT22;34178;50.904;11.560;2023-02-21T05:16:28;10.60;99.90
48376;DHT22;34178;50.904;11.560;2023-02-21T05:18:54;10.60;99.90
48376;DHT22;34178;50.904;11.560;2023-02-21T05:21:20;10.60;99.90
48376;DHT22;34178;50.904;11.560;2023-02-21T05:23:46;10.60;99.90
48376;DHT22;34178;50.904;11.560;2023-02-21T05:26:24;10.60;99.90
48376;DHT22;34178;50.904;11.560;2023-02-21T05:28:50;10.60;99.90
48376;DHT22;34178;50.904;11.560;2023-02-21T05:31:16;10.60;99.90
48376;DHT22;34178;50.904;11.560;2023-02-21T05:36:37;10.70;99.90
48376;DHT22;34178;50.904;11.560;2023-02-21T05:39:09;10.70;99.90
48376;DHT22;34178;50.904;11.560;2023-02-21T05:44:10;10.60;99.90
48376;DHT22;34178;50.904;11.560;2023-02-21T05:46:36;10.70;99.90
48376;DHT22;34178;50.904;11.560;2023-02-21T05:49:03;10.70;99.90
48376;DHT22;34178;50.904;11.560;2023-02-21T05:54:05;10.70;99.90
48376;DHT22;34178;50.904;11.560;2023-02-21T05:56:37;10.70;99.90
48376;DHT22;34178;50.904;11.560;2023-02-21T05:59:04;10.70;99.90
48376;DHT22;34178;50.904;11.560;2023-02-21T06:04:05;10.70;99.90
48376;DHT22;34178;50.904;11.560;2023-02-21T06:06:33;10.70;99.90
48376;DHT22;34178;50.904;11.560;2023-02-21T06:08:59;10.70;99.90
48376;DHT22;34178;50.904;11.560;2023-02-21T06:11:27;10.70;99.90
48376;DHT22;34178;50.904;11.560;2023-02-21T06:13:55;10.70;99.90
48376;DHT22;34178;50.904;11.560;2023-02-21T06:16:21;10.70;99.90
48376;DHT22;34178;50.904;11.560;2023-02-21T06:18:51;10.70;99.90
48376;DHT22;34178;50.904;11.560;2023-02-21T06:21:17;10.70;99.90
48376;DHT22;34178;50.904;11.560;2023-02-21T06:23:43;10.70;99.90
48376;DHT22;34178;50.904;11.560;2023-02-21T06:26:09;10.70;99.90
48376;DHT22;34178;50.904;11.560;2023-02-21T06:28:34;10.70;99.90
48376;DHT22;34178;50.904;11.560;2023-02-21T06:31:00;10.70;99.90
48376;DHT22;34178;50.904;11.560;2023-02-21T06:33:26;10.70;99.90
48376;DHT22;34178;50.904;11.560;2023-02-21T06:35:52;10.70;99.90
48376;DHT22;34178;50.904;11.560;2023-02-21T06:38:17;10.70;99.90
48376;DHT22;34178;50.904;11.560;2023-02-21T06:40:43;10.70;99.90
48376;DHT22;34178;50.904;11.560;2023-02-21T06:45:56;10.70;99.90
48376;DHT22;34178;50.904;11.560;2023-02-21T06:48:22;10.60;99.90
48376;DHT22;34178;50.904;11.560;2023-02-21T06:50:48;10.70;99.90
48376;DHT22;34178;50.904;11.560;2023-02-21T06:53:13;10.70;99.90
48376;DHT22;34178;50.904;11.560;2023-02-21T06:55:39;10.70;99.90
48376;DHT22;34178;50.904;11.560;2023-02-21T06:58:05;10.70;99.90
48376;DHT22;34178;50.904;11.560;2023-02-21T07:00:31;10.70;99.90
48376;DHT22;34178;50.904;11.560;2023-02-21T07:02:56;10.70;99.90
48376;DHT22;34178;50.904;11.560;2023-02-21T07:05:22;10.70;99.90
48376;DHT22;34178;50.904;11.560;2023-02-21T07:07:48;10.70;99.90
48376;DHT22;34178;50.904;11.560;2023-02-21T07:10:14;10.80;99.90
48376;DHT22;34178;50.904;11.560;2023-02-21T07:12:41;10.80;99.90
48376;DHT22;34178;50.904;11.560;2023-02-21T07:15:11;10.80;99.90
48376;DHT22;34178;50.904;11.560;2023-02-21T07:17:36;10.90;99.90
48376;DHT22;34178;50.904;11.560;2023-02-21T07:20:03;10.90;99.90
48376;DHT22;34178;50.904;11.560;2023-02-21T07:22:29;10.90;99.90
48376;DHT22;34178;50.904;11.560;2023-02-21T07:24:55;11.00;99.90
48376;DHT22;34178;50.904;11.560;2023-02-21T07:27:21;11.00;99.90
48376;DHT22;34178;50.904;11.560;2023-02-21T07:29:47;11.00;99.90
48376;DHT22;34178;50.904;11.560;2023-02-21T07:32:14;11.10;99.90
48376;DHT22;34178;50.904;11.560;2023-02-21T07:34:40;11.10;99.90
48376;DHT22;34178;50.904;11.560;2023-02-21T07:37:06;11.10;99.90
48376;DHT22;34178;50.904;11.560;2023-02-21T07:39:32;11.00;99.90
48376;DHT22;34178;50.904;11.560;2023-02-21T07:41:57;11.10;99.90
48376;DHT22;34178;50.904;11.560;2023-02-21T07:44:23;11.10;99.90
48376;DHT22;34178;50.904;11.560;2023-02-21T07:46:49;11.10;99.90
48376;DHT22;34178;50.904;11.560;2023-02-21T07:49:15;11.10;99.90
48376;DHT22;34178;50.904;11.560;2023-02-21T07:51:40;11.10;99.90
48376;DHT22;34178;50.904;11.560;2023-02-21T07:54:06;11.10;99.90
48376;DHT22;34178;50.904;11.560;2023-02-21T07:56:32;11.10;99.90
48376;DHT22;34178;50.904;11.560;2023-02-21T07:58:57;11.10;99.90
48376;DHT22;34178;50.904;11.560;2023-02-21T08:01:24;11.20;99.90
48376;DHT22;34178;50.904;11.560;2023-02-21T08:03:50;11.10;99.90
48376;DHT22;34178;50.904;11.560;2023-02-21T08:06:16;11.10;99.90
48376;DHT22;34178;50.904;11.560;2023-02-21T08:08:43;11.00;99.90
48376;DHT22;34178;50.904;11.560;2023-02-21T08:11:09;10.90;99.90
48376;DHT22;34178;50.904;11.560;2023-02-21T08:13:35;10.90;99.90
48376;DHT22;34178;50.904;11.560;2023-02-21T08:16:01;10.80;99.90
48376;DHT22;34178;50.904;11.560;2023-02-21T08:18:27;10.80;99.90
48376;DHT22;34178;50.904;11.560;2023-02-21T08:20:54;10.90;99.90
48376;DHT22;34178;50.904;11.560;2023-02-21T08:23:21;10.80;99.90
48376;DHT22;34178;50.904;11.560;2023-02-21T08:25:47;10.80;99.90
48376;DHT22;34178;50.904;11.560;2023-02-21T08:28:13;10.80;99.90
48376;DHT22;34178;50.904;11.560;2023-02-21T08:30:39;10.80;99.90
48376;DHT22;34178;50.904;11.560;2023-02-21T08:33:05;10.90;99.90
48376;DHT22;34178;50.904;11.560;2023-02-21T08:35:31;10.90;99.90
48376;DHT22;34178;50.904;11.560;2023-02-21T08:37:56;10.90;99.90
48376;DHT22;34178;50.904;11.560;2023-02-21T08:40:28;11.00;99.90
48376;DHT22;34178;50.904;11.560;2023-02-21T08:42:55;11.00;99.90
48376;DHT22;34178;50.904;11.560;2023-02-21T08:45:22;11.00;99.90
48376;DHT22;34178;50.904;11.560;2023-02-21T08:47:49;11.10;99.90
48376;DHT22;34178;50.904;11.560;2023-02-21T08:50:16;11.20;99.90
48376;DHT22;34178;50.904;11.560;2023-02-21T08:52:41;11.30;99.90
48376;DHT22;34178;50.904;11.560;2023-02-21T08:55:07;11.30;99.90
48376;DHT22;34178;50.904;11.560;2023-02-21T08:57:33;11.40;99.90
48376;DHT22;34178;50.904;11.560;2023-02-21T09:00:00;11.50;99.90
48376;DHT22;34178;50.904;11.560;2023-02-21T09:05:01;11.60;99.90
48376;DHT22;34178;50.904;11.560;2023-02-21T09:07:27;11.60;99.90
48376;DHT22;34178;50.904;11.560;2023-02-21T09:09:55;11.70;99.90
48376;DHT22;34178;50.904;11.560;2023-02-21T09:14:50;11.80;99.90
48376;DHT22;34178;50.904;11.560;2023-02-21T09:17:16;11.90;99.90
48376;DHT22;34178;50.904;11.560;2023-02-21T09:19:41;12.00;99.90
48376;DHT22;34178;50.904;11.560;2023-02-21T09:24:41;12.10;99.90
48376;DHT22;34178;50.904;11.560;2023-02-21T09:27:07;12.10;99.90
48376;DHT22;34178;50.904;11.560;2023-02-21T09:29:34;12.00;99.90
48376;DHT22;34178;50.904;11.560;2023-02-21T09:34:30;12.00;99.90
48376;DHT22;34178;50.904;11.560;2023-02-21T09:36:56;12.00;99.90
48376;DHT22;34178;50.904;11.560;2023-02-21T09:39:22;12.10;99.90
48376;DHT22;34178;50.904;11.560;2023-02-21T09:41:48;12.10;99.90
48376;DHT22;34178;50.904;11.560;2023-02-21T09:44:19;12.20;99.90
48376;DHT22;34178;50.904;11.560;2023-02-21T09:46:57;12.20;99.90
48376;DHT22;34178;50.904;11.560;2023-02-21T09:49:23;12.40;99.90
48376;DHT22;34178;50.904;11.560;2023-02-21T09:51:50;12.40;99.90
48376;DHT22;34178;50.904;11.560;2023-02-21T09:54:32;12.40;99.90
48376;DHT22;34178;50.904;11.560;2023-02-21T09:57:02;12.40;99.90
48376;DHT22;34178;50.904;11.560;2023-02-21T09:59:28;12.50;99.90
48376;DHT22;34178;50.904;11.560;2023-02-21T10:10:30;12.50;99.90
48376;DHT22;34178;50.904;11.560;2023-02-21T10:18:20;12.70;99.90
48376;DHT22;34178;50.904;11.560;2023-02-21T10:20:53;12.80;99.90
48376;DHT22;34178;50.904;11.560;2023-02-21T10:23:43;13.00;99.90
48376;DHT22;34178;50.904;11.560;2023-02-21T10:26:14;13.10;99.90
48376;DHT22;34178;50.904;11.560;2023-02-21T10:28:40;13.10;99.90
48376;DHT22;34178;50.904;11.560;2023-02-21T10:34:17;12.80;99.90
48376;DHT22;34178;50.904;11.560;2023-02-21T10:36:44;12.60;99.90
48376;DHT22;34178;50.904;11.560;2023-02-21T10:39:21;12.40;99.90
48376;DHT22;34178;50.904;11.560;2023-02-21T10:41:50;12.40;99.90
48376;DHT22;34178;50.904;11.560;2023-02-21T10:44:22;12.50;99.90
48376;DHT22;34178;50.904;11.560;2023-02-21T10:47:17;12.50;99.90
48376;DHT22;34178;50.904;11.560;2023-02-21T10:50:03;12.60;99.90
48376;DHT22;34178;50.904;11.560;2023-02-21T10:52:35;12.60;99.90
48376;DHT22;34178;50.904;11.560;2023-02-21T10:55:13;12.70;99.90
48376;DHT22;34178;50.904;11.560;2023-02-21T10:57:53;12.70;99.90
48376;DHT22;34178;50.904;11.560;2023-02-21T11:00:39;12.80;99.90
48376;DHT22;34178;50.904;11.560;2023-02-21T11:05:55;12.70;99.90
48376;DHT22;34178;50.904;11.560;2023-02-21T11:08:42;12.80;99.90
48376;DHT22;34178;50.904;11.560;2023-02-21T11:11:08;12.70;99.90
48376;DHT22;34178;50.904;11.560;2023-02-21T11:13:35;12.80;99.90
48376;DHT22;34178;50.904;11.560;2023-02-21T11:16:19;12.80;99.90
48376;DHT22;34178;50.904;11.560;2023-02-21T11:19:03;12.90;99.90
48376;DHT22;34178;50.904;11.560;2023-02-21T11:24:05;12.90;99.90
48376;DHT22;34178;50.904;11.560;2023-02-21T11:29:12;13.20;99.90
48376;DHT22;34178;50.904;11.560;2023-02-21T11:31:39;13.20;99.90
48376;DHT22;34178;50.904;11.560;2023-02-21T11:34:08;13.30;99.90
48376;DHT22;34178;50.904;11.560;2023-02-21T11:36:36;13.50;99.90
48376;DHT22;34178;50.904;11.560;2023-02-21T11:39:17;13.80;99.90
48376;DHT22;34178;50.904;11.560;2023-02-21T11:41:49;13.90;99.90
48376;DHT22;34178;50.904;11.560;2023-02-21T11:44:38;14.10;99.90
48376;DHT22;34178;50.904;11.560;2023-02-21T11:47:27;14.10;99.90
48376;DHT22;34178;50.904;11.560;2023-02-21T11:50:29;14.00;99.90
48376;DHT22;34178;50.904;11.560;2023-02-21T11:53:23;13.60;99.90
48376;DHT22;34178;50.904;11.560;2023-02-21T11:58:45;13.30;99.90
48376;DHT22;34178;50.904;11.560;2023-02-21T12:13:08;12.80;99.90
48376;DHT22;34178;50.904;11.560;2023-02-21T12:15:55;12.80;99.90
48376;DHT22;34178;50.904;11.560;2023-02-21T12:40:43;13.60;99.90
48376;DHT22;34178;50.904;11.560;2023-02-21T12:46:00;13.40;99.90
48376;DHT22;34178;50.904;11.560;2023-02-21T12:48:58;13.40;99.90
48376;DHT22;34178;50.904;11.560;2023-02-21T12:56:26;13.60;99.90
48376;DHT22;34178;50.904;11.560;2023-02-21T12:59:03;13.80;99.90
48376;DHT22;34178;50.904;11.560;2023-02-21T13:14:34;13.60;99.90
48376;DHT22;34178;50.904;11.560;2023-02-21T13:17:02;13.50;99.90
48376;DHT22;34178;50.904;11.560;2023-02-21T13:19:36;13.60;99.90
48376;DHT22;34178;50.904;11.560;2023-02-21T13:28:24;13.40;99.90
48376;DHT22;34178;50.904;11.560;2023-02-21T13:30:57;13.60;99.90
48376;DHT22;34178;50.904;11.560;2023-02-21T13:35:52;13.40;99.90
48376;DHT22;34178;50.904;11.560;2023-02-21T13:38:21;13.40;99.90
48376;DHT22;34178;50.904;11.560;2023-02-21T13:40:53;13.40;99.90
48376;DHT22;34178;50.904;11.560;2023-02-21T13:43:29;13.60;99.90
48376;DHT22;34178;50.904;11.560;2023-02-21T13:52:35;14.40;99.70
48376;DHT22;34178;50.904;11.560;2023-02-21T13:55:23;14.20;99.80
48376;DHT22;34178;50.904;11.560;2023-02-21T14:08:04;13.20;99.90
48376;DHT22;34178;50.904;11.560;2023-02-21T14:10:58;13.20;99.90
48376;DHT22;34178;50.904;11.560;2023-02-21T14:34:20;13.30;99.90
48376;DHT22;34178;50.904;11.560;2023-02-21T14:36:49;13.30;99.90
48376;DHT22;34178;50.904;11.560;2023-02-21T14:39:16;13.30;99.90
48376;DHT22;34178;50.904;11.560;2023-02-21T14:47:39;13.50;99.90
48376;DHT22;34178;50.904;11.560;2023-02-21T15:19:18;13.40;99.90
48376;DHT22;34178;50.904;11.560;2023-02-21T15:24:19;13.50;99.90
48376;DHT22;34178;50.904;11.560;2023-02-21T15:26:45;13.40;99.90
48376;DHT22;34178;50.904;11.560;2023-02-21T15:29:11;13.30;99.90
48376;DHT22;34178;50.904;11.560;2023-02-21T16:01:01;12.70;99.90
48376;DHT22;34178;50.904;11.560;2023-02-21T16:06:24;12.50;99.90
48376;DHT22;34178;50.904;11.560;2023-02-21T16:09:23;12.40;99.90
48376;DHT22;34178;50.904;11.560;2023-02-21T16:19:44;11.90;99.90
48376;DHT22;34178;50.904;11.560;2023-02-21T16:24:46;11.60;99.90
48376;DHT22;34178;50.904;11.560;2023-02-21T16:27:15;11.60;99.90
48376;DHT22;34178;50.904;11.560;2023-02-21T16:29:40;11.50;99.90
48376;DHT22;34178;50.904;11.560;2023-02-21T16:34:41;11.50;99.90
48376;DHT22;34178;50.904;11.560;2023-02-21T16:37:10;11.40;99.90
48376;DHT22;34178;50.904;11.560;2023-02-21T16:39:37;11.30;99.90
48376;DHT22;34178;50.904;11.560;2023-02-21T16:42:03;11.30;99.90
48376;DHT22;34178;50.904;11.560;2023-02-21T16:44:28;11.20;99.90
48376;DHT22;34178;50.904;11.560;2023-02-21T16:46:54;11.20;99.90
48376;DHT22;34178;50.904;11.560;2023-02-21T16:49:20;11.20;99.90
48376;DHT22;34178;50.904;11.560;2023-02-21T16:51:46;11.20;99.90
48376;DHT22;34178;50.904;11.560;2023-02-21T16:54:12;11.30;99.90
48376;DHT22;34178;50.904;11.560;2023-02-21T16:56:39;11.20;99.90
48376;DHT22;34178;50.904;11.560;2023-02-21T16:59:17;11.20;99.90
48376;DHT22;34178;50.904;11.560;2023-02-21T17:43:09;10.60;99.90
48376;DHT22;34178;50.904;11.560;2023-02-21T17:45:34;10.60;99.90
48376;DHT22;34178;50.904;11.560;2023-02-21T17:48:01;10.60;99.90
48376;DHT22;34178;50.904;11.560;2023-02-21T17:50:28;10.60;99.90
48376;DHT22;34178;50.904;11.560;2023-02-21T18:21:23;10.50;99.90
48376;DHT22;34178;50.904;11.560;2023-02-21T18:23:49;10.50;99.90
48376;DHT22;34178;50.904;11.560;2023-02-21T18:26:15;10.50;99.90
48376;DHT22;34178;50.904;11.560;2023-02-21T18:28:41;10.50;99.90
48376;DHT22;34178;50.904;11.560;2023-02-21T18:31:07;10.50;99.90
48376;DHT22;34178;50.904;11.560;2023-02-21T18:36:49;10.40;99.90
48376;DHT22;34178;50.904;11.560;2023-02-21T18:39:21;10.40;99.90
48376;DHT22;34178;50.904;11.560;2023-02-21T18:41:47;10.50;99.90
48376;DHT22;34178;50.904;11.560;2023-02-21T18:44:13;10.50;99.90
48376;DHT22;34178;50.904;11.560;2023-02-21T18:46:39;10.50;99.90
48376;DHT22;34178;50.904;11.560;2023-02-21T18:49:09;10.60;99.90
48376;DHT22;34178;50.904;11.560;2023-02-21T18:51:35;10.60;99.90
48376;DHT22;34178;50.904;11.560;2023-02-21T18:54:01;10.50;99.90
48376;DHT22;34178;50.904;11.560;2023-02-21T18:56:28;10.50;99.90
48376;DHT22;34178;50.904;11.560;2023-02-21T18:58:53;10.50;99.90
48376;DHT22;34178;50.904;11.560;2023-02-21T19:01:20;10.60;99.90
48376;DHT22;34178;50.904;11.560;2023-02-21T19:03:50;10.50;99.90
48376;DHT22;34178;50.904;11.560;2023-02-21T19:06:17;10.50;99.90
48376;DHT22;34178;50.904;11.560;2023-02-21T19:08:44;10.50;99.90
48376;DHT22;34178;50.904;11.560;2023-02-21T19:11:11;10.50;99.90
48376;DHT22;34178;50.904;11.560;2023-02-21T19:13:39;10.50;99.90
48376;DHT22;34178;50.904;11.560;2023-02-21T19:16:05;10.60;99.90
48376;DHT22;34178;50.904;11.560;2023-02-21T19:18:31;10.50;99.90
48376;DHT22;34178;50.904;11.560;2023-02-21T19:20:57;10.50;99.90
48376;DHT22;34178;50.904;11.560;2023-02-21T19:23:23;10.50;99.90
48376;DHT22;34178;50.904;11.560;2023-02-21T19:25:51;10.50;99.90
48376;DHT22;34178;50.904;11.560;2023-02-21T19:28:17;10.50;99.90
48376;DHT22;34178;50.904;11.560;2023-02-21T19:30:43;10.50;99.90
48376;DHT22;34178;50.904;11.560;2023-02-21T19:33:08;10.50;99.90
48376;DHT22;34178;50.904;11.560;2023-02-21T19:35:34;10.60;99.90
48376;DHT22;34178;50.904;11.560;2023-02-21T19:38:06;10.50;99.90
48376;DHT22;34178;50.904;11.560;2023-02-21T19:40:32;10.60;99.90
48376;DHT22;34178;50.904;11.560;2023-02-21T19:42:58;10.60;99.90
48376;DHT22;34178;50.904;11.560;2023-02-21T19:45:24;10.60;99.90
48376;DHT22;34178;50.904;11.560;2023-02-21T19:47:50;10.50;99.90
48376;DHT22;34178;50.904;11.560;2023-02-21T19:50:15;10.50;99.90
48376;DHT22;34178;50.904;11.560;2023-02-21T19:52:41;10.50;99.90
48376;DHT22;34178;50.904;11.560;2023-02-21T19:55:08;10.50;99.90
48376;DHT22;34178;50.904;11.560;2023-02-21T19:57:34;10.60;99.90
48376;DHT22;34178;50.904;11.560;2023-02-21T20:00:00;10.60;99.90
48376;DHT22;34178;50.904;11.560;2023-02-21T20:02:25;10.50;99.90
48376;DHT22;34178;50.904;11.560;2023-02-21T20:04:51;10.40;99.90
48376;DHT22;34178;50.904;11.560;2023-02-21T20:07:17;10.50;99.90
48376;DHT22;34178;50.904;11.560;2023-02-21T20:09:43;10.40;99.90
48376;DHT22;34178;50.904;11.560;2023-02-21T20:12:10;10.50;99.90
48376;DHT22;34178;50.904;11.560;2023-02-21T20:14:36;10.50;99.90
48376;DHT22;34178;50.904;11.560;2023-02-21T20:17:02;10.40;99.90
48376;DHT22;34178;50.904;11.560;2023-02-21T20:19:27;10.40;99.90
48376;DHT22;34178;50.904;11.560;2023-02-21T20:21:55;10.40;99.90
48376;DHT22;34178;50.904;11.560;2023-02-21T20:24:21;10.40;99.90
48376;DHT22;34178;50.904;11.560;2023-02-21T20:26:49;10.40;99.90
48376;DHT22;34178;50.904;11.560;2023-02-21T20:29:16;10.30;99.90
48376;DHT22;34178;50.904;11.560;2023-02-21T20:31:41;10.20;99.90
48376;DHT22;34178;50.904;11.560;2023-02-21T20:34:07;10.30;99.90
48376;DHT22;34178;50.904;11.560;2023-02-21T20:36:36;10.30;99.90
48376;DHT22;34178;50.904;11.560;2023-02-21T20:39:07;10.40;99.90
48376;DHT22;34178;50.904;11.560;2023-02-21T20:41:43;10.40;99.90
48376;DHT22;34178;50.904;11.560;2023-02-21T20:44:09;10.40;99.90
48376;DHT22;34178;50.904;11.560;2023-02-21T20:46:34;10.30;99.90
48376;DHT22;34178;50.904;11.560;2023-02-21T20:49:03;10.30;99.90
48376;DHT22;34178;50.904;11.560;2023-02-21T20:51:33;10.30;99.90
48376;DHT22;34178;50.904;11.560;2023-02-21T20:53:59;10.30;99.90
48376;DHT22;34178;50.904;11.560;2023-02-21T20:56:37;10.20;99.90
48376;DHT22;34178;50.904;11.560;2023-02-21T20:59:05;10.20;99.90
48376;DHT22;34178;50.904;11.560;2023-02-21T21:01:33;10.20;99.90
48376;DHT22;34178;50.904;11.560;2023-02-21T21:04:00;10.30;99.90
48376;DHT22;34178;50.904;11.560;2023-02-21T21:06:27;10.20;99.90
48376;DHT22;34178;50.904;11.560;2023-02-21T21:08:52;10.20;99.90
48376;DHT22;34178;50.904;11.560;2023-02-21T21:11:19;10.20;99.90
48376;DHT22;34178;50.904;11.560;2023-02-21T21:13:46;10.30;99.90
48376;DHT22;34178;50.904;11.560;2023-02-21T21:16:15;10.30;99.90
48376;DHT22;34178;50.904;11.560;2023-02-21T21:18:44;10.30;99.90
48376;DHT22;34178;50.904;11.560;2023-02-21T21:21:11;10.30;99.90
48376;DHT22;34178;50.904;11.560;2023-02-21T21:23:37;10.20;99.90
48376;DHT22;34178;50.904;11.560;2023-02-21T21:26:06;10.20;99.90
48376;DHT22;34178;50.904;11.560;2023-02-21T21:28:36;10.20;99.90
48376;DHT22;34178;50.904;11.560;2023-02-21T21:31:06;10.20;99.90
48376;DHT22;34178;50.904;11.560;2023-02-21T21:33:33;10.20;99.90
48376;DHT22;34178;50.904;11.560;2023-02-21T21:35:58;10.20;99.90
48376;DHT22;34178;50.904;11.560;2023-02-21T21:38:25;10.20;99.90
48376;DHT22;34178;50.904;11.560;2023-02-21T21:40:55;10.20;99.90
48376;DHT22;34178;50.904;11.560;2023-02-21T21:43:24;10.20;99.90
48376;DHT22;34178;50.904;11.560;2023-02-21T21:45:52;10.10;99.90
48376;DHT22;34178;50.904;11.560;2023-02-21T21:48:18;10.10;99.90
48376;DHT22;34178;50.904;11.560;2023-02-21T21:50:44;10.10;99.90
48376;DHT22;34178;50.904;11.560;2023-02-21T21:53:10;10.10;99.90
48376;DHT22;34178;50.904;11.560;2023-02-21T21:55:36;10.00;99.90
48376;DHT22;34178;50.904;11.560;2023-02-21T21:58:03;10.10;99.90
48376;DHT22;34178;50.904;11.560;2023-02-21T22:00:36;10.10;99.90
48376;DHT22;34178;50.904;11.560;2023-02-21T22:03:08;10.20;99.90
48376;DHT22;34178;50.904;11.560;2023-02-21T22:05:34;10.20;99.90
48376;DHT22;34178;50.904;11.560;2023-02-21T22:08:00;10.20;99.90
48376;DHT22;34178;50.904;11.560;2023-02-21T22:10:27;10.30;99.90
48376;DHT22;34178;50.904;11.560;2023-02-21T22:12:54;10.30;99.90
48376;DHT22;34178;50.904;11.560;2023-02-21T22:15:26;10.30;99.90
48376;DHT22;34178;50.904;11.560;2023-02-21T22:17:52;10.20;99.90
48376;DHT22;34178;50.904;11.560;2023-02-21T22:20:20;10.10;99.90
48376;DHT22;34178;50.904;11.560;2023-02-21T22:22:53;10.10;99.90
48376;DHT22;34178;50.904;11.560;2023-02-21T22:25:23;10.10;99.90
48376;DHT22;34178;50.904;11.560;2023-02-21T22:27:49;10.10;99.90
48376;DHT22;34178;50.904;11.560;2023-02-21T22:30:16;10.10;99.90
48376;DHT22;34178;50.904;11.560;2023-02-21T22:32:43;10.10;99.90
48376;DHT22;34178;50.904;11.560;2023-02-21T22:35:11;10.10;99.90
48376;DHT22;34178;50.904;11.560;2023-02-21T22:38:00;10.10;99.90
48376;DHT22;34178;50.904;11.560;2023-02-21T22:40:27;10.00;99.90
48376;DHT22;34178;50.904;11.560;2023-02-21T22:42:56;9.90;99.90
48376;DHT22;34178;50.904;11.560;2023-02-21T22:45:24;9.90;99.90
48376;DHT22;34178;50.904;11.560;2023-02-21T22:47:51;10.00;99.90
48376;DHT22;34178;50.904;11.560;2023-02-21T22:50:19;10.00;99.90
48376;DHT22;34178;50.904;11.560;2023-02-21T22:52:53;9.90;99.90
48376;DHT22;34178;50.904;11.560;2023-02-21T22:55:23;10.00;99.90
48376;DHT22;34178;50.904;11.560;2023-02-21T22:57:57;9.90;99.90
48376;DHT22;34178;50.904;11.560;2023-02-21T23:00:28;9.90;99.90
48376;DHT22;34178;50.904;11.560;2023-02-21T23:02:58;9.90;99.90
48376;DHT22;34178;50.904;11.560;2023-02-21T23:05:25;9.90;99.90
48376;DHT22;34178;50.904;11.560;2023-02-21T23:07:53;9.90;99.90
48376;DHT22;34178;50.904;11.560;2023-02-21T23:10:23;9.90;99.90
48376;DHT22;34178;50.904;11.560;2023-02-21T23:12:56;9.80;99.90
48376;DHT22;34178;50.904;11.560;2023-02-21T23:15:25;9.80;99.90
48376;DHT22;34178;50.904;11.560;2023-02-21T23:17:51;9.80;99.90
48376;DHT22;34178;50.904;11.560;2023-02-21T23:20:20;9.80;99.90
48376;DHT22;34178;50.904;11.560;2023-02-21T23:22:55;9.80;99.90
48376;DHT22;34178;50.904;11.560;2023-02-21T23:25:27;9.80;99.90
48376;DHT22;34178;50.904;11.560;2023-02-21T23:28:02;9.80;99.90
48376;DHT22;34178;50.904;11.560;2023-02-21T23:30:34;9.80;99.90
48376;DHT22;34178;50.904;11.560;2023-02-21T23:33:18;9.80;99.90
48376;DHT22;34178;50.904;11.560;2023-02-21T23:35:48;9.90;99.90
48376;DHT22;34178;50.904;11.560;2023-02-21T23:38:15;9.90;99.90
48376;DHT22;34178;50.904;11.560;2023-02-21T23:40:46;9.90;99.90
48376;DHT22;34178;50.904;11.560;2023-02-21T23:43:14;10.00;99.90